Terminal Aerodrome Forecast
Issued by NWS

Home | Current Version | Previous Version | Text Only | Print | Product List | Glossary On
Versions: 1 2 3 4 5 6 7 8 9 10 11 12 13 14 15
000
FTUS45 KTFX 201125 CCA
TAFLWT

KLWT 201125Z 2012/2112 VRB05KT P6SM SCT080 BKN150
     FM202100 VRB05KT P6SM VCTS SCT070CB BKN110
     FM210100 33006KT P6SM VCSH SCT040 BKN080
     FM210900 VRB05KT 5SM -RA BR SCT020 OVC040=

USA.gov is the U.S. government's official web portal to all federal, state and local government web resources and services.